sensor_id;sensor_type;location;lat;lon;timestamp;pressure;altitude;pressure_sealevel;temperature;humidity
46303;BME280;32029;51.358;5.628;2023-02-28T00:01:29;102807.66;;;2.64;65.92
46303;BME280;32029;51.358;5.628;2023-02-28T00:03:55;102788.34;;;2.54;65.86
46303;BME280;32029;51.358;5.628;2023-02-28T00:06:21;102786.78;;;2.50;66.03
46303;BME280;32029;51.358;5.628;2023-02-28T00:08:47;102808.63;;;2.63;65.85
46303;BME280;32029;51.358;5.628;2023-02-28T00:11:16;102768.41;;;2.39;65.91
46303;BME280;32029;51.358;5.628;2023-02-28T00:13:45;102813.34;;;2.59;65.68
46303;BME280;32029;51.358;5.628;2023-02-28T00:16:18;102808.97;;;2.57;66.00
46303;BME280;32029;51.358;5.628;2023-02-28T00:18:45;102745.00;;;2.23;65.80
46303;BME280;32029;51.358;5.628;2023-02-28T00:21:13;102799.25;;;2.53;66.04
46303;BME280;32029;51.358;5.628;2023-02-28T00:23:40;102802.06;;;2.51;66.14
46303;BME280;32029;51.358;5.628;2023-02-28T00:26:06;102805.81;;;2.49;66.25
46303;BME280;32029;51.358;5.628;2023-02-28T00:28:32;102771.81;;;2.27;66.21
46303;BME280;32029;51.358;5.628;2023-02-28T00:31:00;102806.88;;;2.46;66.57
46303;BME280;32029;51.358;5.628;2023-02-28T00:33:27;102788.84;;;2.29;66.76
46303;BME280;32029;51.358;5.628;2023-02-28T00:36:03;102813.34;;;2.43;66.36
46303;BME280;32029;51.358;5.628;2023-02-28T00:38:30;102806.25;;;2.41;66.26
46303;BME280;32029;51.358;5.628;2023-02-28T00:40:57;102776.78;;;2.19;66.76
46303;BME280;32029;51.358;5.628;2023-02-28T00:43:25;102807.38;;;2.37;66.63
46303;BME280;32029;51.358;5.628;2023-02-28T00:45:51;102797.13;;;2.26;66.80
46303;BME280;32029;51.358;5.628;2023-02-28T00:48:18;102793.06;;;2.19;66.50
46303;BME280;32029;51.358;5.628;2023-02-28T00:50:43;102814.03;;;2.31;66.42
46303;BME280;32029;51.358;5.628;2023-02-28T00:53:09;102815.16;;;2.27;66.69
46303;BME280;32029;51.358;5.628;2023-02-28T00:55:37;102798.69;;;2.14;66.88
46303;BME280;32029;51.358;5.628;2023-02-28T00:58:03;102818.19;;;2.21;66.81
46303;BME280;32029;51.358;5.628;2023-02-28T01:00:30;102817.44;;;2.19;67.09
46303;BME280;32029;51.358;5.628;2023-02-28T01:02:57;102824.69;;;2.18;67.15
46303;BME280;32029;51.358;5.628;2023-02-28T01:05:24;102819.34;;;2.17;66.99
46303;BME280;32029;51.358;5.628;2023-02-28T01:07:50;102808.91;;;2.09;66.92
46303;BME280;32029;51.358;5.628;2023-02-28T01:10:17;102831.13;;;2.16;67.15
46303;BME280;32029;51.358;5.628;2023-02-28T01:12:44;102794.06;;;2.01;67.15
46303;BME280;32029;51.358;5.628;2023-02-28T01:15:11;102826.75;;;2.13;67.33
46303;BME280;32029;51.358;5.628;2023-02-28T01:17:37;102820.78;;;2.07;67.29
46303;BME280;32029;51.358;5.628;2023-02-28T01:20:04;102821.50;;;2.10;67.42
46303;BME280;32029;51.358;5.628;2023-02-28T01:22:31;102828.75;;;2.10;67.10
46303;BME280;32029;51.358;5.628;2023-02-28T01:24:58;102825.28;;;2.08;67.40
46303;BME280;32029;51.358;5.628;2023-02-28T01:27:26;102802.03;;;1.86;67.46
46303;BME280;32029;51.358;5.628;2023-02-28T01:29:59;102801.88;;;1.89;67.40
46303;BME280;32029;51.358;5.628;2023-02-28T01:32:25;102828.22;;;2.03;67.50
46303;BME280;32029;51.358;5.628;2023-02-28T01:34:53;102803.00;;;1.85;67.63
46303;BME280;32029;51.358;5.628;2023-02-28T01:37:22;102794.09;;;1.83;67.41
46303;BME280;32029;51.358;5.628;2023-02-28T01:39:50;102803.16;;;1.82;67.60
46303;BME280;32029;51.358;5.628;2023-02-28T01:42:19;102828.44;;;1.99;67.54
46303;BME280;32029;51.358;5.628;2023-02-28T01:47:30;102812.88;;;1.86;67.78
46303;BME280;32029;51.358;5.628;2023-02-28T01:50:02;102823.38;;;1.92;67.34
46303;BME280;32029;51.358;5.628;2023-02-28T01:52:33;102822.69;;;1.89;67.46
46303;BME280;32029;51.358;5.628;2023-02-28T01:55:02;102816.38;;;1.88;67.63
46303;BME280;32029;51.358;5.628;2023-02-28T01:57:40;102816.53;;;1.85;67.45
46303;BME280;32029;51.358;5.628;2023-02-28T02:00:15;102817.56;;;1.83;67.73
46303;BME280;32029;51.358;5.628;2023-02-28T02:02:56;102781.47;;;1.66;67.70
46303;BME280;32029;51.358;5.628;2023-02-28T02:05:27;102767.56;;;1.57;67.57
46303;BME280;32029;51.358;5.628;2023-02-28T02:08:04;102795.56;;;1.73;67.61
46303;BME280;32029;51.358;5.628;2023-02-28T02:10:36;102790.28;;;1.70;67.54
46303;BME280;32029;51.358;5.628;2023-02-28T02:13:49;102797.63;;;1.68;67.88
46303;BME280;32029;51.358;5.628;2023-02-28T02:16:30;102791.56;;;1.63;68.31
46303;BME280;32029;51.358;5.628;2023-02-28T02:19:07;102792.53;;;1.62;68.11
46303;BME280;32029;51.358;5.628;2023-02-28T02:28:17;102774.56;;;1.61;68.77
46303;BME280;32029;51.358;5.628;2023-02-28T02:37:33;102748.16;;;1.49;68.76
46303;BME280;32029;51.358;5.628;2023-02-28T02:40:22;102774.41;;;1.64;68.72
46303;BME280;32029;51.358;5.628;2023-02-28T02:43:01;102778.03;;;1.63;68.80
46303;BME280;32029;51.358;5.628;2023-02-28T02:45:52;102729.56;;;1.25;68.48
46303;BME280;32029;51.358;5.628;2023-02-28T02:48:26;102753.88;;;1.42;68.56
46303;BME280;32029;51.358;5.628;2023-02-28T02:51:00;102782.94;;;1.56;68.56
46303;BME280;32029;51.358;5.628;2023-02-28T02:53:32;102753.06;;;1.40;68.57
46303;BME280;32029;51.358;5.628;2023-02-28T02:56:02;102776.88;;;1.51;68.76
46303;BME280;32029;51.358;5.628;2023-02-28T02:58:35;102743.16;;;1.23;68.81
46303;BME280;32029;51.358;5.628;2023-02-28T03:01:15;102780.31;;;1.37;68.76
46303;BME280;32029;51.358;5.628;2023-02-28T03:03:49;102771.38;;;1.35;68.66
46303;BME280;32029;51.358;5.628;2023-02-28T03:06:17;102760.25;;;1.24;69.23
46303;BME280;32029;51.358;5.628;2023-02-28T03:08:45;102761.38;;;1.20;69.27
46303;BME280;32029;51.358;5.628;2023-02-28T03:11:14;102784.19;;;1.32;69.15
46303;BME280;32029;51.358;5.628;2023-02-28T03:13:52;102776.03;;;1.33;68.94
46303;BME280;32029;51.358;5.628;2023-02-28T03:16:53;102789.34;;;1.36;69.13
46303;BME280;32029;51.358;5.628;2023-02-28T04:27:08;102788.19;;;1.92;68.89
46303;BME280;32029;51.358;5.628;2023-02-28T04:29:35;102760.28;;;1.75;68.83
46303;BME280;32029;51.358;5.628;2023-02-28T04:32:02;102787.38;;;1.90;68.56
46303;BME280;32029;51.358;5.628;2023-02-28T04:34:31;102748.13;;;1.66;68.48
46303;BME280;32029;51.358;5.628;2023-02-28T04:36:58;102789.31;;;1.88;68.55
46303;BME280;32029;51.358;5.628;2023-02-28T04:39:26;102761.34;;;1.72;68.81
46303;BME280;32029;51.358;5.628;2023-02-28T04:41:52;102782.94;;;1.89;69.20
46303;BME280;32029;51.358;5.628;2023-02-28T04:44:19;102781.25;;;1.87;69.18
46303;BME280;32029;51.358;5.628;2023-02-28T04:46:47;102790.72;;;1.95;69.19
46303;BME280;32029;51.358;5.628;2023-02-28T04:49:16;102781.19;;;1.88;69.43
46303;BME280;32029;51.358;5.628;2023-02-28T04:51:43;102791.06;;;1.89;69.37
46303;BME280;32029;51.358;5.628;2023-02-28T04:54:10;102809.34;;;2.02;69.24
46303;BME280;32029;51.358;5.628;2023-02-28T04:56:37;102811.06;;;2.03;68.82
46303;BME280;32029;51.358;5.628;2023-02-28T04:59:03;102770.78;;;1.81;68.59
46303;BME280;32029;51.358;5.628;2023-02-28T05:01:33;102810.31;;;2.01;68.67
46303;BME280;32029;51.358;5.628;2023-02-28T05:04:02;102800.44;;;2.00;68.61
46303;BME280;32029;51.358;5.628;2023-02-28T05:06:31;102773.47;;;1.81;68.67
46303;BME280;32029;51.358;5.628;2023-02-28T05:08:59;102765.38;;;1.81;68.56
46303;BME280;32029;51.358;5.628;2023-02-28T05:11:32;102789.94;;;1.93;68.64
46303;BME280;32029;51.358;5.628;2023-02-28T05:14:10;102800.50;;;1.98;68.28
46303;BME280;32029;51.358;5.628;2023-02-28T05:16:38;102771.91;;;1.77;68.24
46303;BME280;32029;51.358;5.628;2023-02-28T05:19:04;102779.31;;;1.73;67.98
46303;BME280;32029;51.358;5.628;2023-02-28T05:21:40;102809.03;;;1.90;68.01
46303;BME280;32029;51.358;5.628;2023-02-28T05:24:11;102809.22;;;1.87;67.82
46303;BME280;32029;51.358;5.628;2023-02-28T05:26:40;102767.72;;;1.54;67.84
46303;BME280;32029;51.358;5.628;2023-02-28T05:29:08;102818.63;;;1.80;67.90
46303;BME280;32029;51.358;5.628;2023-02-28T05:31:35;102798.91;;;1.61;68.37
46303;BME280;32029;51.358;5.628;2023-02-28T05:34:01;102827.88;;;1.76;68.03
46303;BME280;32029;51.358;5.628;2023-02-28T05:36:33;102805.91;;;1.65;68.34
46303;BME280;32029;51.358;5.628;2023-02-28T05:39:01;102798.19;;;1.57;68.52
46303;BME280;32029;51.358;5.628;2023-02-28T05:41:29;102791.81;;;1.58;68.13
46303;BME280;32029;51.358;5.628;2023-02-28T05:43:58;102793.81;;;1.55;68.10
46303;BME280;32029;51.358;5.628;2023-02-28T05:46:26;102833.44;;;1.73;68.24
46303;BME280;32029;51.358;5.628;2023-02-28T05:48:54;102815.78;;;1.66;68.66
46303;BME280;32029;51.358;5.628;2023-02-28T05:51:22;102788.75;;;1.49;68.11
46303;BME280;32029;51.358;5.628;2023-02-28T05:53:54;102798.44;;;1.53;68.22
46303;BME280;32029;51.358;5.628;2023-02-28T05:56:22;102800.19;;;1.54;68.19
46303;BME280;32029;51.358;5.628;2023-02-28T05:58:52;102816.81;;;1.63;68.39
46303;BME280;32029;51.358;5.628;2023-02-28T06:04:14;102783.78;;;1.39;68.48
46303;BME280;32029;51.358;5.628;2023-02-28T06:06:49;102821.44;;;1.61;68.61
46303;BME280;32029;51.358;5.628;2023-02-28T06:09:20;102819.75;;;1.59;68.51
46303;BME280;32029;51.358;5.628;2023-02-28T06:11:47;102799.78;;;1.44;68.36
46303;BME280;32029;51.358;5.628;2023-02-28T06:14:16;102826.28;;;1.55;68.31
46303;BME280;32029;51.358;5.628;2023-02-28T06:16:42;102823.69;;;1.53;68.42
46303;BME280;32029;51.358;5.628;2023-02-28T06:19:10;102822.16;;;1.47;68.58
46303;BME280;32029;51.358;5.628;2023-02-28T06:21:37;102835.53;;;1.51;68.21
46303;BME280;32029;51.358;5.628;2023-02-28T06:24:05;102803.06;;;1.33;68.27
46303;BME280;32029;51.358;5.628;2023-02-28T06:26:31;102812.13;;;1.32;68.26
46303;BME280;32029;51.358;5.628;2023-02-28T06:28:57;102816.41;;;1.36;68.09
46303;BME280;32029;51.358;5.628;2023-02-28T06:31:23;102793.91;;;1.18;68.22
46303;BME280;32029;51.358;5.628;2023-02-28T06:33:51;102836.94;;;1.40;68.11
46303;BME280;32029;51.358;5.628;2023-02-28T06:36:17;102809.03;;;1.22;68.00
46303;BME280;32029;51.358;5.628;2023-02-28T06:38:44;102816.13;;;1.25;68.25
46303;BME280;32029;51.358;5.628;2023-02-28T06:41:11;102829.41;;;1.30;68.38
46303;BME280;32029;51.358;5.628;2023-02-28T06:43:40;102843.31;;;1.39;68.41
46303;BME280;32029;51.358;5.628;2023-02-28T06:46:08;102846.03;;;1.39;68.49
46303;BME280;32029;51.358;5.628;2023-02-28T06:48:37;102835.53;;;1.33;68.44
46303;BME280;32029;51.358;5.628;2023-02-28T06:51:05;102840.13;;;1.31;68.31
46303;BME280;32029;51.358;5.628;2023-02-28T06:53:32;102863.78;;;1.45;68.31
46303;BME280;32029;51.358;5.628;2023-02-28T06:56:02;102745.44;;;0.79;68.37
46303;BME280;32029;51.358;5.628;2023-02-28T06:58:30;102763.75;;;0.91;68.26
46303;BME280;32029;51.358;5.628;2023-02-28T07:00:57;102859.16;;;1.47;68.37
46303;BME280;32029;51.358;5.628;2023-02-28T07:03:24;102862.72;;;1.47;68.54
46303;BME280;32029;51.358;5.628;2023-02-28T07:05:50;102858.91;;;1.52;68.54
46303;BME280;32029;51.358;5.628;2023-02-28T07:08:17;102852.56;;;1.53;68.38
46303;BME280;32029;51.358;5.628;2023-02-28T07:10:43;102859.09;;;1.66;68.35
46303;BME280;32029;51.358;5.628;2023-02-28T07:13:10;102822.47;;;1.41;68.30
46303;BME280;32029;51.358;5.628;2023-02-28T07:15:38;102863.63;;;1.65;68.25
46303;BME280;32029;51.358;5.628;2023-02-28T07:18:05;102864.81;;;1.77;68.28
46303;BME280;32029;51.358;5.628;2023-02-28T07:20:31;102860.38;;;1.76;67.93
46303;BME280;32029;51.358;5.628;2023-02-28T07:22:58;102852.56;;;1.70;67.88
46303;BME280;32029;51.358;5.628;2023-02-28T07:25:25;102837.28;;;1.69;68.04
46303;BME280;32029;51.358;5.628;2023-02-28T07:27:53;102882.81;;;1.95;68.11
46303;BME280;32029;51.358;5.628;2023-02-28T07:30:20;102861.44;;;1.89;68.24
46303;BME280;32029;51.358;5.628;2023-02-28T07:32:47;102882.13;;;2.08;68.31
46303;BME280;32029;51.358;5.628;2023-02-28T07:35:13;102874.78;;;2.10;68.40
46303;BME280;32029;51.358;5.628;2023-02-28T07:37:41;102849.25;;;1.98;68.14
46303;BME280;32029;51.358;5.628;2023-02-28T07:40:10;102869.78;;;2.19;68.42
46303;BME280;32029;51.358;5.628;2023-02-28T07:42:41;102864.19;;;2.23;68.36
46303;BME280;32029;51.358;5.628;2023-02-28T07:45:08;102870.06;;;2.31;67.90
46303;BME280;32029;51.358;5.628;2023-02-28T07:47:38;102860.16;;;2.30;67.88
46303;BME280;32029;51.358;5.628;2023-02-28T07:50:06;102848.28;;;2.32;67.48
46303;BME280;32029;51.358;5.628;2023-02-28T07:52:32;102870.09;;;2.47;67.69
46303;BME280;32029;51.358;5.628;2023-02-28T07:54:59;102871.31;;;2.57;67.03
46303;BME280;32029;51.358;5.628;2023-02-28T07:57:26;102855.41;;;2.51;66.62
46303;BME280;32029;51.358;5.628;2023-02-28T07:59:52;102880.16;;;2.76;65.97
46303;BME280;32029;51.358;5.628;2023-02-28T08:02:18;102874.22;;;2.69;66.04
46303;BME280;32029;51.358;5.628;2023-02-28T08:04:45;102897.13;;;2.95;65.60
46303;BME280;32029;51.358;5.628;2023-02-28T08:07:15;102892.50;;;2.98;65.57
46303;BME280;32029;51.358;5.628;2023-02-28T08:09:42;102899.13;;;3.08;65.32
46303;BME280;32029;51.358;5.628;2023-02-28T08:12:10;102885.41;;;3.11;64.67
46303;BME280;32029;51.358;5.628;2023-02-28T08:14:39;102908.16;;;3.24;64.75
46303;BME280;32029;51.358;5.628;2023-02-28T08:17:05;102876.22;;;3.13;63.98
46303;BME280;32029;51.358;5.628;2023-02-28T08:19:32;102897.47;;;3.37;63.76
46303;BME280;32029;51.358;5.628;2023-02-28T08:21:58;102887.13;;;3.43;62.82
46303;BME280;32029;51.358;5.628;2023-02-28T08:24:25;102895.84;;;3.49;62.55
46303;BME280;32029;51.358;5.628;2023-02-28T08:26:51;102887.25;;;3.56;62.69
46303;BME280;32029;51.358;5.628;2023-02-28T08:29:17;102858.91;;;3.46;62.59
46303;BME280;32029;51.358;5.628;2023-02-28T08:31:43;102887.22;;;3.72;61.44
46303;BME280;32029;51.358;5.628;2023-02-28T08:34:13;102884.91;;;3.80;61.54
46303;BME280;32029;51.358;5.628;2023-02-28T08:36:40;102888.13;;;3.87;60.67
46303;BME280;32029;51.358;5.628;2023-02-28T08:39:06;102893.28;;;3.91;60.16
46303;BME280;32029;51.358;5.628;2023-02-28T08:41:33;102890.09;;;3.99;59.89
46303;BME280;32029;51.358;5.628;2023-02-28T08:43:59;102892.41;;;4.05;58.85
46303;BME280;32029;51.358;5.628;2023-02-28T08:46:26;102883.03;;;4.11;58.84
46303;BME280;32029;51.358;5.628;2023-02-28T08:48:53;102876.41;;;4.15;58.09
46303;BME280;32029;51.358;5.628;2023-02-28T08:51:21;102854.47;;;4.04;57.24
46303;BME280;32029;51.358;5.628;2023-02-28T08:54:00;102885.75;;;4.25;57.40
46303;BME280;32029;51.358;5.628;2023-02-28T08:56:27;102872.25;;;4.24;57.25
46303;BME280;32029;51.358;5.628;2023-02-28T08:58:55;102883.22;;;4.36;56.81
46303;BME280;32029;51.358;5.628;2023-02-28T09:01:27;102885.56;;;4.42;56.19
46303;BME280;32029;51.358;5.628;2023-02-28T09:03:54;102877.91;;;4.49;56.49
46303;BME280;32029;51.358;5.628;2023-02-28T09:06:22;102889.22;;;4.56;55.52
46303;BME280;32029;51.358;5.628;2023-02-28T09:08:49;102891.56;;;4.62;55.20
46303;BME280;32029;51.358;5.628;2023-02-28T09:11:16;102881.44;;;4.64;54.83
46303;BME280;32029;51.358;5.628;2023-02-28T09:13:43;102882.81;;;4.71;53.81
46303;BME280;32029;51.358;5.628;2023-02-28T09:16:12;102861.53;;;4.63;53.50
46303;BME280;32029;51.358;5.628;2023-02-28T09:18:39;102874.25;;;4.77;53.55
46303;BME280;32029;51.358;5.628;2023-02-28T09:21:08;102881.25;;;4.81;53.43
46303;BME280;32029;51.358;5.628;2023-02-28T09:23:34;102889.09;;;4.86;53.13
46303;BME280;32029;51.358;5.628;2023-02-28T09:26:01;102879.69;;;4.91;53.10
46303;BME280;32029;51.358;5.628;2023-02-28T09:28:27;102879.25;;;4.98;52.26
46303;BME280;32029;51.358;5.628;2023-02-28T09:30:54;102884.50;;;5.01;51.45
46303;BME280;32029;51.358;5.628;2023-02-28T09:33:21;102881.38;;;5.07;51.31
46303;BME280;32029;51.358;5.628;2023-02-28T09:35:48;102881.94;;;5.12;51.30
46303;BME280;32029;51.358;5.628;2023-02-28T09:38:16;102881.66;;;5.16;51.51
46303;BME280;32029;51.358;5.628;2023-02-28T09:40:50;102851.22;;;5.10;51.57
46303;BME280;32029;51.358;5.628;2023-02-28T09:43:20;102876.16;;;5.31;51.28
46303;BME280;32029;51.358;5.628;2023-02-28T09:45:53;102876.59;;;5.37;51.23
46303;BME280;32029;51.358;5.628;2023-02-28T09:48:28;102874.47;;;5.43;49.82
46303;BME280;32029;51.358;5.628;2023-02-28T09:51:04;102870.53;;;5.47;48.66
46303;BME280;32029;51.358;5.628;2023-02-28T09:53:33;102866.97;;;5.46;50.00
46303;BME280;32029;51.358;5.628;2023-02-28T09:56:15;102844.50;;;5.43;49.64
46303;BME280;32029;51.358;5.628;2023-02-28T09:58:58;102872.22;;;5.62;50.15
46303;BME280;32029;51.358;5.628;2023-02-28T10:09:52;102861.16;;;5.90;48.26
46303;BME280;32029;51.358;5.628;2023-02-28T10:12:20;102845.78;;;5.89;48.20
46303;BME280;32029;51.358;5.628;2023-02-28T10:14:51;102860.53;;;6.00;47.49
46303;BME280;32029;51.358;5.628;2023-02-28T10:17:26;102834.88;;;5.89;46.05
46303;BME280;32029;51.358;5.628;2023-02-28T10:20:04;102817.75;;;5.87;46.24
46303;BME280;32029;51.358;5.628;2023-02-28T10:22:57;102851.47;;;6.12;45.75
46303;BME280;32029;51.358;5.628;2023-02-28T10:25:27;102849.31;;;6.17;45.92
46303;BME280;32029;51.358;5.628;2023-02-28T10:28:00;102858.03;;;6.22;45.23
46303;BME280;32029;51.358;5.628;2023-02-28T10:30:28;102824.88;;;6.16;44.62
46303;BME280;32029;51.358;5.628;2023-02-28T10:32:54;102851.16;;;6.29;44.91
46303;BME280;32029;51.358;5.628;2023-02-28T10:35:26;102822.78;;;6.19;44.66
46303;BME280;32029;51.358;5.628;2023-02-28T10:37:57;102850.28;;;6.29;44.88
46303;BME280;32029;51.358;5.628;2023-02-28T10:43:03;102847.75;;;6.38;44.54
46303;BME280;32029;51.358;5.628;2023-02-28T10:45:32;102862.16;;;6.41;44.53
46303;BME280;32029;51.358;5.628;2023-02-28T10:48:05;102849.06;;;6.46;44.52
46303;BME280;32029;51.358;5.628;2023-02-28T10:50:42;102846.00;;;6.50;44.47
46303;BME280;32029;51.358;5.628;2023-02-28T11:01:46;102845.31;;;6.72;44.63
46303;BME280;32029;51.358;5.628;2023-02-28T11:07:01;102831.72;;;6.83;44.26
46303;BME280;32029;51.358;5.628;2023-02-28T11:09:39;102835.84;;;6.89;43.70
46303;BME280;32029;51.358;5.628;2023-02-28T11:12:16;102825.56;;;6.93;44.18
46303;BME280;32029;51.358;5.628;2023-02-28T11:14:52;102817.09;;;6.84;44.71
46303;BME280;32029;51.358;5.628;2023-02-28T11:17:40;102834.06;;;7.01;43.92
46303;BME280;32029;51.358;5.628;2023-02-28T11:20:18;102833.06;;;7.02;44.46
46303;BME280;32029;51.358;5.628;2023-02-28T11:22:46;102829.00;;;7.07;44.23
46303;BME280;32029;51.358;5.628;2023-02-28T11:25:22;102826.94;;;7.11;43.98
46303;BME280;32029;51.358;5.628;2023-02-28T11:27:53;102821.97;;;7.16;43.30
46303;BME280;32029;51.358;5.628;2023-02-28T11:30:29;102814.56;;;7.18;43.63
46303;BME280;32029;51.358;5.628;2023-02-28T11:32:55;102814.94;;;7.25;44.13
46303;BME280;32029;51.358;5.628;2023-02-28T11:37:57;102817.50;;;7.39;43.97
46303;BME280;32029;51.358;5.628;2023-02-28T11:49:05;102800.50;;;7.47;42.62
46303;BME280;32029;51.358;5.628;2023-02-28T11:54:50;102798.25;;;7.41;43.06
46303;BME280;32029;51.358;5.628;2023-02-28T11:57:44;102803.97;;;7.38;43.21
46303;BME280;32029;51.358;5.628;2023-02-28T12:00:42;102789.53;;;7.35;43.09
46303;BME280;32029;51.358;5.628;2023-02-28T12:05:45;102798.16;;;7.42;43.79
46303;BME280;32029;51.358;5.628;2023-02-28T12:14:13;102704.63;;;6.92;42.43
46303;BME280;32029;51.358;5.628;2023-02-28T12:16:46;102788.59;;;7.48;43.47
46303;BME280;32029;51.358;5.628;2023-02-28T12:22:37;102774.94;;;7.48;43.33
46303;BME280;32029;51.358;5.628;2023-02-28T12:27:45;102780.66;;;7.56;43.67
46303;BME280;32029;51.358;5.628;2023-02-28T12:30:18;102776.69;;;7.60;43.65
46303;BME280;32029;51.358;5.628;2023-02-28T12:32:49;102756.22;;;7.54;43.45
46303;BME280;32029;51.358;5.628;2023-02-28T12:35:31;102768.03;;;7.66;42.91
46303;BME280;32029;51.358;5.628;2023-02-28T12:38:12;102768.75;;;7.68;43.13
46303;BME280;32029;51.358;5.628;2023-02-28T12:40:44;102763.28;;;7.68;43.37
46303;BME280;32029;51.358;5.628;2023-02-28T12:43:14;102771.25;;;7.71;44.04
46303;BME280;32029;51.358;5.628;2023-02-28T12:45:53;102753.84;;;7.72;42.31
46303;BME280;32029;51.358;5.628;2023-02-28T12:51:13;102756.13;;;7.78;42.86
46303;BME280;32029;51.358;5.628;2023-02-28T12:56:23;102737.75;;;7.80;43.79
46303;BME280;32029;51.358;5.628;2023-02-28T12:58:55;102704.19;;;7.67;44.27
46303;BME280;32029;51.358;5.628;2023-02-28T13:01:42;102742.94;;;7.95;43.99
46303;BME280;32029;51.358;5.628;2023-02-28T13:09:59;102740.47;;;8.14;44.04
46303;BME280;32029;51.358;5.628;2023-02-28T13:12:27;102715.25;;;8.10;43.57
46303;BME280;32029;51.358;5.628;2023-02-28T13:15:16;102732.41;;;8.24;43.57
46303;BME280;32029;51.358;5.628;2023-02-28T13:17:52;102732.50;;;8.33;43.04
46303;BME280;32029;51.358;5.628;2023-02-28T13:20:23;102730.31;;;8.39;42.80
46303;BME280;32029;51.358;5.628;2023-02-28T13:22:52;102684.28;;;8.21;43.25
46303;BME280;32029;51.358;5.628;2023-02-28T13:27:50;102724.06;;;8.48;42.17
46303;BME280;32029;51.358;5.628;2023-02-28T13:35:46;102679.06;;;8.18;42.02
46303;BME280;32029;51.358;5.628;2023-02-28T13:38:17;102710.16;;;8.40;42.02
46303;BME280;32029;51.358;5.628;2023-02-28T13:40:48;102713.09;;;8.37;41.94
46303;BME280;32029;51.358;5.628;2023-02-28T13:43:16;102716.75;;;8.37;43.01
46303;BME280;32029;51.358;5.628;2023-02-28T13:46:05;102718.22;;;8.41;43.48
46303;BME280;32029;51.358;5.628;2023-02-28T13:48:32;102710.63;;;8.45;43.21
46303;BME280;32029;51.358;5.628;2023-02-28T13:50:59;102706.78;;;8.47;42.20
46303;BME280;32029;51.358;5.628;2023-02-28T13:53:55;102705.78;;;8.48;42.52
46303;BME280;32029;51.358;5.628;2023-02-28T14:00:01;102700.81;;;8.42;41.45
46303;BME280;32029;51.358;5.628;2023-02-28T14:02:57;102701.41;;;8.34;41.64
46303;BME280;32029;51.358;5.628;2023-02-28T14:05:27;102709.13;;;8.29;42.39
46303;BME280;32029;51.358;5.628;2023-02-28T14:07:58;102702.53;;;8.32;42.06
46303;BME280;32029;51.358;5.628;2023-02-28T14:10:31;102693.97;;;8.37;42.57
46303;BME280;32029;51.358;5.628;2023-02-28T14:13:11;102699.94;;;8.42;42.35
46303;BME280;32029;51.358;5.628;2023-02-28T14:20:40;102687.72;;;8.46;42.68
46303;BME280;32029;51.358;5.628;2023-02-28T14:23:18;102695.84;;;8.47;41.88
46303;BME280;32029;51.358;5.628;2023-02-28T14:31:29;102680.53;;;8.45;41.89
46303;BME280;32029;51.358;5.628;2023-02-28T14:34:03;102679.81;;;8.43;42.64
46303;BME280;32029;51.358;5.628;2023-02-28T14:36:34;102687.72;;;8.46;42.60
46303;BME280;32029;51.358;5.628;2023-02-28T14:39:07;102676.53;;;8.49;42.85
46303;BME280;32029;51.358;5.628;2023-02-28T14:41:39;102687.22;;;8.52;42.17
46303;BME280;32029;51.358;5.628;2023-02-28T14:44:32;102594.59;;;8.04;42.63
46303;BME280;32029;51.358;5.628;2023-02-28T14:47:01;102676.44;;;8.50;42.54
46303;BME280;32029;51.358;5.628;2023-02-28T14:49:36;102669.97;;;8.51;42.65
46303;BME280;32029;51.358;5.628;2023-02-28T14:52:21;102668.47;;;8.47;42.52
46303;BME280;32029;51.358;5.628;2023-02-28T14:54:57;102667.59;;;8.47;42.16
46303;BME280;32029;51.358;5.628;2023-02-28T14:57:30;102663.88;;;8.48;42.39
46303;BME280;32029;51.358;5.628;2023-02-28T15:00:03;102671.94;;;8.49;41.91
46303;BME280;32029;51.358;5.628;2023-02-28T15:02:38;102667.31;;;8.50;42.29
46303;BME280;32029;51.358;5.628;2023-02-28T15:07:44;102661.84;;;8.50;42.41
46303;BME280;32029;51.358;5.628;2023-02-28T15:10:24;102665.41;;;8.62;42.03
46303;BME280;32029;51.358;5.628;2023-02-28T15:12:54;102655.09;;;8.65;42.56
46303;BME280;32029;51.358;5.628;2023-02-28T15:15:27;102664.91;;;8.68;42.42
46303;BME280;32029;51.358;5.628;2023-02-28T15:17:58;102669.28;;;8.70;42.48
46303;BME280;32029;51.358;5.628;2023-02-28T15:20:26;102670.84;;;8.73;42.53
46303;BME280;32029;51.358;5.628;2023-02-28T15:22:55;102662.53;;;8.74;41.49
46303;BME280;32029;51.358;5.628;2023-02-28T15:25:23;102632.25;;;8.55;41.75
46303;BME280;32029;51.358;5.628;2023-02-28T15:27:52;102667.25;;;8.72;42.18
46303;BME280;32029;51.358;5.628;2023-02-28T15:30:28;102647.88;;;8.64;42.28
46303;BME280;32029;51.358;5.628;2023-02-28T15:33:22;102658.19;;;8.72;41.71
46303;BME280;32029;51.358;5.628;2023-02-28T15:35:49;102669.28;;;8.70;42.03
46303;BME280;32029;51.358;5.628;2023-02-28T15:38:25;102669.28;;;8.70;42.05
46303;BME280;32029;51.358;5.628;2023-02-28T15:40:54;102667.25;;;8.72;41.80
46303;BME280;32029;51.358;5.628;2023-02-28T15:43:27;102660.78;;;8.73;42.37
46303;BME280;32029;51.358;5.628;2023-02-28T15:46:01;102663.25;;;8.76;42.99
46303;BME280;32029;51.358;5.628;2023-02-28T15:48:33;102647.03;;;8.64;42.17
46303;BME280;32029;51.358;5.628;2023-02-28T15:54:08;102667.47;;;8.80;42.65
46303;BME280;32029;51.358;5.628;2023-02-28T15:56:29;102665.59;;;8.81;43.27
46303;BME280;32029;51.358;5.628;2023-02-28T15:58:59;102668.47;;;8.79;42.49
46303;BME280;32029;51.358;5.628;2023-02-28T16:01:29;102658.53;;;8.78;43.29
46303;BME280;32029;51.358;5.628;2023-02-28T16:04:17;102664.00;;;8.78;43.41
46303;BME280;32029;51.358;5.628;2023-02-28T16:06:45;102650.84;;;8.72;43.33
46303;BME280;32029;51.358;5.628;2023-02-28T16:09:16;102669.59;;;8.77;43.39
46303;BME280;32029;51.358;5.628;2023-02-28T16:11:48;102666.84;;;8.77;43.54
46303;BME280;32029;51.358;5.628;2023-02-28T16:14:21;102628.50;;;8.56;43.33
46303;BME280;32029;51.358;5.628;2023-02-28T16:16:53;102667.88;;;8.76;43.35